This is the latest recevied weather packets stored in our database for station/object WC0AA-WX. If no packets are shown the sender has not sent any weather packets the latest 10 day(s).
| Time | Temp. | Humidity | Pressure | Rain* | Wind** | Luminosity | Snow |
|---|---|---|---|---|---|---|---|
| 1777717545 | -0.56° C | 100% | 1021.1 hPa | 0 mm | - | - | - |
| 1777716943 | -0.56° C | 97% | 1021.1 hPa | 0 mm | - | - | - |
| 1777716343 | -0.56° C | 97% | 1021 hPa | 0 mm | - | - | - |
| 1777715741 | -0.56° C | 96% | 1021 hPa | 0 mm | - | - | - |
| 1777715140 | -1.11° C | 94% | 1021 hPa | 0 mm | - | - | - |
| 1777713938 | -1.11° C | 92% | 1020.9 hPa | 0 mm | - | - | - |
| 1777713337 | -0.56° C | 94% | 1020.8 hPa | 0 mm | - | - | - |
| 1777712736 | 0° C | 94% | 1020.8 hPa | 0 mm | - | - | - |
| 1777712135 | 0° C | 94% | 1020.7 hPa | 0 mm | - | - | - |
| 1777708529 | 0.56° C | 86% | 1020.6 hPa | 0 mm | - | - | - |
| 1777707929 | 0.56° C | 86% | 1020.6 hPa | 0 mm | - | - | - |
| 1777707328 | 1.11° C | 86% | 1020.7 hPa | 0 mm | - | - | - |
| 1777706727 | 1.11° C | 86% | 1020.7 hPa | 0 mm | - | - | - |
| 1777706126 | 1.11° C | 85% | 1020.8 hPa | 0 mm | - | - | - |
| 1777704924 | 1.67° C | 83% | 1020.8 hPa | 0 mm | - | - | - |
| 1777704323 | 2.22° C | 84% | 1020.8 hPa | 0 mm | - | - | - |
| 1777703721 | 2.22° C | 83% | 1020.8 hPa | 0 mm | - | - | - |
| 1777700115 | 3.89° C | 75% | 1020.6 hPa | 0 mm | - | - | - |
| 1777698913 | 4.44° C | 70% | 1020.4 hPa | 0 mm | - | - | - |
| 1777698312 | 4.44° C | 71% | 1020.3 hPa | 0 mm | - | - | - |
| 1777696509 | 5.56° C | 64% | 1020 hPa | 0 mm | - | - | - |
| 1777694706 | 7.22° C | 56% | 1020 hPa | 0 mm | - | - | - |
| 1777694105 | 7.22° C | 56% | 1019.9 hPa | 0 mm | - | - | - |
| 1777693504 | 7.78° C | 56% | 1019.9 hPa | 0 mm | - | - | - |
| 1777692302 | 7.22° C | 57% | 1019.9 hPa | 0 mm | - | - | - |
* Rain latest hour (hover to see other rain measurements)
** Current wind speed in m/s (hover to see current wind gust speed)